Flag Center, Illinois
Current Conditions -  °F | °C
As of 2:15 PM on Monday 24 Nov 2014 (Local Time) from KRPJ Reporting Station
Light Snow Light Snow  
Wind Chill: 11°   Ceiling: 1100
Heat Index: 27°   Visibility: 1.5mi
Dew Point: 25°   Wind: 25mph
Humidity: 93%   Direction: 260°W
Pressure: 29.49"   Gusts: 32mph
Location:  41.9424°N, 89.0653°W
Report Text: KRPJ 242015Z AUTO 26022G28KT 1 1/2SM -SN OVC011 M03/M04 A2949 RMK AO2 T10301040
Loading
Personal Weather Stations






























Interactive Weather Map New forecast layout! Learn more

10-Day Weather Forecast

Advertisements
Track Severe Weather on mobile